createdAt,value
2024-03-12T00:00:52.195Z,79.99
2024-03-12T00:01:52.361Z,80.66
2024-03-12T00:02:52.232Z,80.77
2024-03-12T00:03:52.621Z,78.91
2024-03-12T00:04:52.344Z,80.45
2024-03-12T00:05:52.416Z,79.86
2024-03-12T00:06:52.510Z,79.45
2024-03-12T00:07:52.524Z,77.56
2024-03-12T00:08:52.605Z,79.47
2024-03-12T00:09:52.676Z,79.82
2024-03-12T00:10:52.722Z,78.97
2024-03-12T00:11:52.716Z,78.38
2024-03-12T00:12:52.898Z,76.15
2024-03-12T00:13:52.844Z,79.29
2024-03-12T00:14:52.921Z,80.92
2024-03-12T00:15:53.065Z,80.72
2024-03-12T00:16:53.008Z,79.61
2024-03-12T00:17:53.098Z,78.41
2024-03-12T00:18:53.213Z,76.85
2024-03-12T00:19:53.177Z,79.03
2024-03-12T00:20:53.212Z,80.07
2024-03-12T00:21:53.361Z,78.68
2024-03-12T00:22:53.365Z,77.37
2024-03-12T00:23:53.614Z,76.03
2024-03-12T00:24:53.514Z,76.86
2024-03-12T00:25:53.515Z,77.49
2024-03-12T00:26:53.604Z,77.35
2024-03-12T00:27:53.639Z,75.11
2024-03-12T00:28:53.659Z,75.90
2024-03-12T00:29:53.724Z,75.88
2024-03-12T00:30:53.827Z,77.47
2024-03-12T00:31:53.826Z,75.67
2024-03-12T00:32:53.881Z,75.85
2024-03-12T00:33:53.995Z,76.32
2024-03-12T00:34:54.009Z,75.94
2024-03-12T00:35:54.086Z,75.13
2024-03-12T00:36:54.192Z,75.43
2024-03-12T00:37:54.184Z,74.22
2024-03-12T00:38:54.594Z,74.31
2024-03-12T00:39:54.285Z,71.54
2024-03-12T00:40:54.363Z,74.29
2024-03-12T00:41:54.375Z,76.14
2024-03-12T00:42:54.481Z,74.62
2024-03-12T00:43:54.518Z,73.22
2024-03-12T00:44:54.563Z,74.28
2024-03-12T00:45:54.811Z,73.03
2024-03-12T00:46:54.683Z,71.83
2024-03-12T00:47:54.852Z,73.50
2024-03-12T00:48:55.151Z,71.11
2024-03-12T00:49:57.848Z,72.07
2024-03-12T00:50:54.885Z,72.11
2024-03-12T00:51:54.902Z,71.62
2024-03-12T00:52:54.837Z,72.77
2024-03-12T00:53:54.860Z,73.27
2024-03-12T00:54:54.898Z,71.76
2024-03-12T00:55:54.867Z,72.10
2024-03-12T00:56:54.840Z,71.79
2024-03-12T00:57:54.871Z,72.34
2024-03-12T00:58:54.864Z,73.66
2024-03-12T00:59:54.852Z,71.85
2024-03-12T01:00:55.270Z,69.90
2024-03-12T01:01:54.880Z,70.86
2024-03-12T01:02:54.862Z,70.56
2024-03-12T01:03:54.932Z,69.29
2024-03-12T01:04:54.891Z,70.65
2024-03-12T01:05:54.869Z,70.17
2024-03-12T01:06:54.891Z,69.93
2024-03-12T01:07:54.862Z,69.55
2024-03-12T01:08:54.852Z,68.19
2024-03-12T01:09:55.057Z,71.36
2024-03-12T01:10:54.996Z,69.54
2024-03-12T01:11:55.029Z,69.95
2024-03-12T01:12:55.157Z,69.83
2024-03-12T01:13:55.150Z,66.38
2024-03-12T01:14:55.219Z,67.04
2024-03-12T01:15:55.505Z,70.02
2024-03-12T01:16:55.385Z,70.09
2024-03-12T01:17:55.545Z,68.77
2024-03-12T01:18:55.525Z,66.69
2024-03-12T01:19:55.509Z,68.07
2024-03-12T01:20:55.609Z,68.13
2024-03-12T01:21:55.724Z,66.60
2024-03-12T01:22:56.126Z,68.57
2024-03-12T01:23:55.829Z,68.62
2024-03-12T01:24:55.843Z,68.41
2024-03-12T01:25:55.906Z,66.12
2024-03-12T01:26:55.936Z,66.44
2024-03-12T01:27:56.055Z,66.17
2024-03-12T01:28:56.057Z,65.87
2024-03-12T01:29:56.117Z,67.05
2024-03-12T01:30:56.275Z,67.17
2024-03-12T01:31:56.246Z,66.19
2024-03-12T01:32:56.657Z,67.40
2024-03-12T01:33:56.393Z,65.60
2024-03-12T01:34:56.425Z,66.51
2024-03-12T01:35:56.515Z,64.69
2024-03-12T01:36:56.674Z,66.14
2024-03-12T01:37:56.621Z,65.16
2024-03-12T01:38:56.702Z,65.32
2024-03-12T01:39:56.785Z,64.97
2024-03-12T01:40:56.819Z,65.37
2024-03-12T01:41:56.860Z,65.58
2024-03-12T01:42:56.964Z,66.73
2024-03-12T01:43:57.004Z,63.86
2024-03-12T01:44:57.030Z,65.70
2024-03-12T01:45:57.163Z,63.04
2024-03-12T01:46:57.170Z,66.89
2024-03-12T01:47:57.246Z,63.79
2024-03-12T01:48:57.315Z,64.51
2024-03-12T01:49:57.351Z,64.10
2024-03-12T01:50:57.429Z,63.06
2024-03-12T01:51:57.490Z,64.07
2024-03-12T01:52:57.536Z,64.48
2024-03-12T01:53:57.664Z,63.26
2024-03-12T01:54:57.714Z,64.28
2024-03-12T01:55:57.731Z,63.29
2024-03-12T01:56:57.788Z,64.19
2024-03-12T01:57:57.899Z,64.71
2024-03-12T01:58:58.143Z,62.78
2024-03-12T01:59:57.987Z,64.71
2024-03-12T02:00:58.084Z,62.18
2024-03-12T02:01:58.172Z,63.46
2024-03-12T02:02:58.169Z,65.85
2024-03-12T02:03:58.677Z,63.37
2024-03-12T02:04:58.277Z,63.35
2024-03-12T02:05:58.332Z,62.75
2024-03-12T02:06:58.501Z,62.35
2024-03-12T02:07:58.445Z,60.38
2024-03-12T02:08:58.648Z,61.84
2024-03-12T02:09:58.721Z,62.31
2024-03-12T02:10:58.743Z,62.67
2024-03-12T02:11:58.743Z,62.64
2024-03-12T02:12:58.879Z,63.97
2024-03-12T02:13:58.822Z,62.65
2024-03-12T02:14:58.925Z,60.56
2024-03-12T02:15:59.037Z,62.73
2024-03-12T02:16:59.008Z,62.27
2024-03-12T02:17:59.145Z,62.81
2024-03-12T02:18:59.729Z,62.00
2024-03-12T02:19:59.232Z,60.60
2024-03-12T02:20:59.296Z,61.73
2024-03-12T02:21:59.427Z,60.42
2024-03-12T02:22:59.404Z,62.45
2024-03-12T02:23:59.649Z,62.03
2024-03-12T02:24:59.689Z,62.18
2024-03-12T02:25:59.595Z,62.52
2024-03-12T02:26:59.677Z,60.46
2024-03-12T02:27:59.824Z,60.02
2024-03-12T02:29:00.170Z,61.95
2024-03-12T02:29:59.911Z,61.82
2024-03-12T02:31:00.071Z,62.44
2024-03-12T02:32:00.018Z,62.25
2024-03-12T02:33:00.085Z,61.37
2024-03-12T02:34:00.228Z,59.77
2024-03-12T02:35:00.233Z,61.52
2024-03-12T02:36:00.239Z,59.95
2024-03-12T02:37:00.423Z,59.13
2024-03-12T02:38:00.419Z,59.39
2024-03-12T02:39:00.474Z,60.25
2024-03-12T02:40:00.626Z,61.23
2024-03-12T02:41:00.588Z,60.69
2024-03-12T02:42:00.652Z,59.13
2024-03-12T02:43:00.764Z,60.86
2024-03-12T02:44:01.669Z,61.33
2024-03-12T02:45:00.845Z,60.44
2024-03-12T02:46:01.015Z,59.78
2024-03-12T02:47:01.001Z,58.98
2024-03-12T02:48:01.126Z,59.57
2024-03-12T02:49:01.230Z,59.09
2024-03-12T02:50:01.174Z,60.94
2024-03-12T02:51:01.231Z,60.39
2024-03-12T02:52:01.441Z,61.38
2024-03-12T02:53:01.368Z,59.76
2024-03-12T02:54:01.651Z,58.78
2024-03-12T02:55:01.580Z,57.32
2024-03-12T02:56:01.585Z,57.21
2024-03-12T02:57:01.654Z,57.73
2024-03-12T02:58:01.727Z,58.85
2024-03-12T02:59:02.164Z,60.06
2024-03-12T03:00:01.864Z,56.99
2024-03-12T03:01:02.059Z,57.65
2024-03-12T03:02:02.036Z,57.21
2024-03-12T03:03:02.031Z,59.35
2024-03-12T03:04:02.278Z,58.22
2024-03-12T03:05:02.153Z,57.65
2024-03-12T03:06:02.207Z,58.62
2024-03-12T03:07:02.472Z,58.42
2024-03-12T03:08:02.354Z,58.28
2024-03-12T03:09:02.431Z,55.36
2024-03-12T03:10:02.767Z,58.31
2024-03-12T03:11:02.632Z,56.83
2024-03-12T03:12:02.573Z,56.60
2024-03-12T03:13:02.735Z,58.02
2024-03-12T03:14:02.747Z,55.84
2024-03-12T03:15:02.813Z,56.93
2024-03-12T03:16:02.950Z,58.13
2024-03-12T03:17:02.911Z,57.66
2024-03-12T03:18:03.121Z,56.31
2024-03-12T03:19:03.162Z,55.61
2024-03-12T03:20:03.128Z,56.97
2024-03-12T03:21:03.145Z,58.65
2024-03-12T03:22:03.295Z,56.58
2024-03-12T03:23:03.331Z,55.94
2024-03-12T03:24:03.674Z,57.12
2024-03-12T03:25:03.565Z,58.59
2024-03-12T03:26:03.534Z,54.69
2024-03-12T03:27:03.582Z,55.53
2024-03-12T03:28:03.718Z,56.42
2024-03-12T03:29:04.182Z,55.81
2024-03-12T03:30:03.768Z,56.30
2024-03-12T03:31:03.879Z,56.03
2024-03-12T03:32:03.952Z,54.58
2024-03-12T03:33:04.064Z,55.52
2024-03-12T03:34:04.267Z,53.13
2024-03-12T03:35:04.071Z,53.68
2024-03-12T03:36:04.105Z,54.15
2024-03-12T03:37:04.383Z,52.89
2024-03-12T03:38:04.278Z,54.19
2024-03-12T03:39:04.681Z,54.44
2024-03-12T03:40:04.441Z,54.19
2024-03-12T03:41:04.461Z,54.87
2024-03-12T03:42:04.495Z,55.49
2024-03-12T03:43:04.673Z,54.06
2024-03-12T03:44:04.677Z,55.24
2024-03-12T03:45:04.715Z,53.49
2024-03-12T03:46:04.880Z,54.31
2024-03-12T03:47:04.861Z,55.34
2024-03-12T03:48:04.870Z,54.25
2024-03-12T03:49:05.233Z,56.14
2024-03-12T03:50:04.967Z,55.64
2024-03-12T03:51:05.048Z,54.40
2024-03-12T03:52:05.118Z,54.93
2024-03-12T03:53:05.162Z,55.33
2024-03-12T03:54:05.655Z,54.77
2024-03-12T03:55:05.419Z,53.36
2024-03-12T03:56:05.353Z,56.20
2024-03-12T03:57:05.388Z,53.34
2024-03-12T03:58:05.568Z,55.26
2024-03-12T03:59:05.700Z,53.73
2024-03-12T04:00:05.577Z,53.47
2024-03-12T04:01:05.728Z,52.63
2024-03-12T04:02:05.738Z,54.17
2024-03-12T04:03:05.779Z,53.46
2024-03-12T04:04:06.240Z,53.37
2024-03-12T04:05:05.864Z,52.41
2024-03-12T04:06:05.977Z,53.54
2024-03-12T04:07:06.071Z,53.00
2024-03-12T04:08:06.056Z,52.39
2024-03-12T04:09:06.234Z,53.97
2024-03-12T04:10:06.254Z,53.10
2024-03-12T04:11:06.267Z,54.58
2024-03-12T04:12:06.324Z,52.47
2024-03-12T04:13:06.431Z,53.60
2024-03-12T04:14:06.688Z,52.91
2024-03-12T04:15:06.478Z,54.53
2024-03-12T04:16:06.595Z,54.75
2024-03-12T04:17:06.653Z,54.55
2024-03-12T04:18:06.742Z,55.38
2024-03-12T04:19:07.245Z,52.61
2024-03-12T04:20:06.815Z,52.05
2024-03-12T04:21:06.882Z,52.61
2024-03-12T04:22:07.129Z,54.06
2024-03-12T04:23:06.978Z,53.64
2024-03-12T04:24:07.204Z,53.22
2024-03-12T04:25:07.178Z,52.54
2024-03-12T04:26:07.179Z,51.73
2024-03-12T04:27:07.199Z,53.41
2024-03-12T04:28:07.346Z,50.00
2024-03-12T04:29:07.701Z,51.85
2024-03-12T04:30:07.414Z,53.61
2024-03-12T04:31:07.531Z,52.53
2024-03-12T04:32:07.523Z,51.04
2024-03-12T04:33:07.628Z,51.30
2024-03-12T04:34:07.726Z,50.34
2024-03-12T04:35:07.731Z,52.63
2024-03-12T04:36:07.784Z,52.43
2024-03-12T04:37:07.954Z,51.91
2024-03-12T04:38:07.880Z,52.00
2024-03-12T04:39:08.203Z,52.81
2024-03-12T04:40:15.629Z,50.00
2024-03-12T04:41:15.418Z,50.00
2024-03-12T04:42:15.426Z,50.00
2024-03-12T04:43:15.488Z,50.00
2024-03-12T04:44:15.595Z,50.00
2024-03-12T04:45:15.573Z,50.83
2024-03-12T04:46:15.488Z,52.60
2024-03-12T04:47:15.456Z,52.29
2024-03-12T04:48:15.472Z,50.67
2024-03-12T04:49:15.621Z,50.77
2024-03-12T04:50:15.846Z,52.96
2024-03-12T04:51:15.686Z,50.91
2024-03-12T04:52:15.437Z,53.33
2024-03-12T04:53:15.460Z,50.44
2024-03-12T04:54:15.590Z,52.58
2024-03-12T04:55:15.636Z,51.09
2024-03-12T04:56:15.491Z,50.30
2024-03-12T04:57:15.480Z,54.36
2024-03-12T04:58:15.465Z,51.44
2024-03-12T04:59:15.595Z,53.22
2024-03-12T05:00:16.469Z,52.07
2024-03-12T05:01:15.593Z,53.01
2024-03-12T05:02:15.473Z,53.29
2024-03-12T05:03:15.528Z,52.07
2024-03-12T05:04:22.066Z,50.00
2024-03-12T05:05:16.595Z,50.10
2024-03-12T05:06:16.675Z,50.47
2024-03-12T05:07:15.754Z,51.10
2024-03-12T05:08:15.760Z,52.95
2024-03-12T05:09:15.771Z,54.37
2024-03-12T05:10:15.941Z,54.49
2024-03-12T05:11:15.963Z,53.55
2024-03-12T05:12:15.966Z,51.76
2024-03-12T05:13:16.082Z,50.91
2024-03-12T05:14:16.087Z,54.41
2024-03-12T05:15:16.155Z,51.86
2024-03-12T05:16:16.244Z,52.66
2024-03-12T05:17:16.296Z,54.95
2024-03-12T05:18:16.381Z,55.74
2024-03-12T05:19:16.483Z,53.53
2024-03-12T05:20:16.489Z,51.41
2024-03-12T05:21:16.517Z,52.38
2024-03-12T05:22:16.635Z,53.93
2024-03-12T05:23:16.673Z,52.98
2024-03-12T05:24:16.755Z,51.05
2024-03-12T05:25:16.789Z,52.93
2024-03-12T05:26:16.865Z,52.78
2024-03-12T05:27:16.900Z,52.79
2024-03-12T05:28:16.978Z,51.75
2024-03-12T05:29:17.038Z,53.29
2024-03-12T05:30:17.150Z,54.28
2024-03-12T05:31:17.197Z,52.70
2024-03-12T05:32:17.214Z,51.53
2024-03-12T05:33:17.428Z,53.69
2024-03-12T05:34:17.474Z,53.35
2024-03-12T05:35:17.398Z,53.47
2024-03-12T05:36:17.458Z,52.81
2024-03-12T05:37:17.676Z,51.56
2024-03-12T05:38:17.578Z,52.50
2024-03-12T05:39:17.676Z,52.39
2024-03-12T05:40:17.758Z,50.62
2024-03-12T05:41:17.806Z,50.00
2024-03-12T05:42:17.867Z,52.89
2024-03-12T05:43:17.976Z,54.85
2024-03-12T05:44:17.978Z,54.07
2024-03-12T05:45:18.033Z,52.02
2024-03-12T05:46:18.163Z,51.62
2024-03-12T05:47:18.154Z,53.89
2024-03-12T05:48:18.208Z,52.79
2024-03-12T05:49:18.657Z,50.67
2024-03-12T05:50:18.567Z,52.54
2024-03-12T05:51:18.380Z,51.99
2024-03-12T05:52:18.448Z,52.11
2024-03-12T05:53:18.516Z,54.76
2024-03-12T05:54:18.594Z,52.80
2024-03-12T05:55:18.702Z,52.06
2024-03-12T05:56:19.406Z,52.47
2024-03-12T05:57:18.775Z,50.66
2024-03-12T05:58:18.832Z,52.75
2024-03-12T05:59:19.096Z,50.81
2024-03-12T06:00:18.932Z,51.74
2024-03-12T06:01:19.107Z,54.56
2024-03-12T06:02:19.035Z,51.42
2024-03-12T06:03:19.120Z,50.49
2024-03-12T06:04:19.270Z,53.75
2024-03-12T06:05:19.241Z,50.76
2024-03-12T06:06:19.405Z,53.33
2024-03-12T06:07:21.197Z,55.22
2024-03-12T06:08:19.400Z,50.79
2024-03-12T06:09:19.460Z,52.73
2024-03-12T06:10:20.574Z,52.96
2024-03-12T06:11:19.621Z,52.96
2024-03-12T06:12:19.681Z,52.66
2024-03-12T06:13:19.752Z,53.35
2024-03-12T06:14:19.771Z,52.48
2024-03-12T06:15:19.883Z,53.05
2024-03-12T06:16:20.106Z,52.66
2024-03-12T06:17:19.977Z,52.63
2024-03-12T06:18:20.065Z,53.97
2024-03-12T06:19:20.857Z,53.85
2024-03-12T06:20:20.195Z,51.95
2024-03-12T06:21:20.259Z,53.01
2024-03-12T06:22:20.370Z,52.08
2024-03-12T06:23:20.391Z,53.96
2024-03-12T06:24:20.608Z,51.42
2024-03-12T06:25:20.571Z,53.27
2024-03-12T06:26:20.586Z,51.94
2024-03-12T06:27:20.628Z,52.58
2024-03-12T06:28:20.665Z,53.31
2024-03-12T06:29:21.108Z,53.81
2024-03-12T06:30:20.823Z,53.61
2024-03-12T06:31:21.038Z,51.71
2024-03-12T06:32:20.952Z,51.40
2024-03-12T06:33:21.093Z,52.02
2024-03-12T06:34:21.174Z,52.62
2024-03-12T06:35:21.108Z,50.70
2024-03-12T06:36:21.234Z,51.71
2024-03-12T06:37:21.275Z,54.04
2024-03-12T06:38:21.382Z,53.81
2024-03-12T06:39:21.651Z,50.00
2024-03-12T06:40:21.555Z,52.71
2024-03-12T06:41:21.492Z,53.95
2024-03-12T06:42:21.575Z,51.74
2024-03-12T06:43:21.720Z,52.60
2024-03-12T06:44:22.122Z,51.80
2024-03-12T06:45:21.766Z,52.04
2024-03-12T06:46:21.923Z,54.29
2024-03-12T06:47:21.892Z,52.96
2024-03-12T06:48:21.958Z,50.00
2024-03-12T06:49:22.082Z,50.07
2024-03-12T06:50:22.054Z,50.70
2024-03-12T06:51:22.163Z,51.06
2024-03-12T06:52:22.200Z,50.77
2024-03-12T06:53:22.292Z,51.67
2024-03-12T06:54:22.603Z,53.28
2024-03-12T06:55:22.461Z,55.13
2024-03-12T06:56:22.475Z,52.18
2024-03-12T06:57:22.514Z,55.58
2024-03-12T06:58:22.671Z,57.63
2024-03-12T06:59:23.114Z,62.28
2024-03-12T07:00:22.669Z,63.14
2024-03-12T07:01:22.786Z,63.15
2024-03-12T07:02:22.747Z,64.66
2024-03-12T07:03:23.021Z,66.60
2024-03-12T07:04:23.228Z,69.15
2024-03-12T07:05:22.872Z,75.89
2024-03-12T07:06:22.962Z,75.19
2024-03-12T07:07:22.943Z,77.03
2024-03-12T07:08:23.040Z,85.69
2024-03-12T07:09:23.112Z,94.17
2024-03-12T07:10:23.080Z,99.69
2024-03-12T07:11:23.104Z,106.15
2024-03-12T07:12:23.095Z,110.84
2024-03-12T07:13:23.102Z,112.07
2024-03-12T07:14:23.606Z,116.11
2024-03-12T07:15:23.148Z,117.72
2024-03-12T07:16:23.252Z,124.11
2024-03-12T07:17:23.360Z,128.62
2024-03-12T07:18:23.265Z,129.25
2024-03-12T07:19:23.648Z,129.15
2024-03-12T07:20:23.295Z,131.72
2024-03-12T07:21:23.317Z,133.97
2024-03-12T07:22:23.376Z,132.18
2024-03-12T07:23:23.337Z,137.85
2024-03-12T07:24:23.641Z,139.96
2024-03-12T07:25:23.430Z,142.06
2024-03-12T07:26:23.425Z,142.31
2024-03-12T07:27:23.430Z,142.59
2024-03-12T07:28:25.032Z,145.07
2024-03-12T07:29:23.637Z,146.96
2024-03-12T07:30:23.472Z,146.83
2024-03-12T07:31:23.508Z,151.26
2024-03-12T07:32:23.477Z,153.44
2024-03-12T07:33:23.476Z,155.69
2024-03-12T07:34:23.623Z,163.59
2024-03-12T07:35:23.520Z,177.02
2024-03-12T07:36:23.511Z,180.88
2024-03-12T07:37:23.541Z,178.42
2024-03-12T07:38:23.519Z,181.64
2024-03-12T07:39:23.605Z,182.44
2024-03-12T07:40:23.602Z,185.05
2024-03-12T07:41:23.563Z,187.96
2024-03-12T07:42:23.608Z,187.36
2024-03-12T07:43:23.676Z,186.38
2024-03-12T07:44:24.129Z,185.53
2024-03-12T07:45:23.686Z,187.65
2024-03-12T07:46:23.867Z,187.77
2024-03-12T07:47:23.755Z,188.92
2024-03-12T07:48:23.880Z,187.41
2024-03-12T07:49:24.170Z,182.51
2024-03-12T07:50:23.891Z,182.95
2024-03-12T07:51:23.955Z,178.75
2024-03-12T07:52:24.032Z,180.41
2024-03-12T07:53:24.076Z,180.95
2024-03-12T07:54:25.052Z,181.00
2024-03-12T07:55:24.073Z,181.23
2024-03-12T07:56:24.061Z,182.80
2024-03-12T07:57:24.038Z,176.82
2024-03-12T07:58:24.118Z,164.51
2024-03-12T07:59:24.060Z,149.86
2024-03-12T08:00:24.082Z,137.15
2024-03-12T08:01:24.166Z,122.29
2024-03-12T08:02:24.098Z,107.73
2024-03-12T08:03:24.076Z,97.37
2024-03-12T08:04:24.208Z,82.93
2024-03-12T08:05:24.074Z,74.27
2024-03-12T08:06:24.641Z,65.34
2024-03-12T08:07:24.152Z,56.16
2024-03-12T08:08:24.145Z,50.49
2024-03-12T08:09:24.672Z,50.19
2024-03-12T08:10:24.384Z,49.02
2024-03-12T08:11:24.412Z,50.00
2024-03-12T08:12:24.412Z,51.54
2024-03-12T08:13:24.511Z,50.00
2024-03-12T08:14:24.558Z,50.00
2024-03-12T08:15:24.700Z,50.00
2024-03-12T08:16:24.710Z,51.36
2024-03-12T08:17:24.740Z,53.45
2024-03-12T08:18:24.870Z,50.25
2024-03-12T08:19:25.269Z,50.00
2024-03-12T08:20:24.916Z,52.90
2024-03-12T08:21:24.947Z,50.75
2024-03-12T08:22:25.042Z,50.15
2024-03-12T08:23:25.089Z,54.10
2024-03-12T08:24:25.144Z,50.57
2024-03-12T08:25:25.233Z,51.71
2024-03-12T08:26:25.196Z,54.11
2024-03-12T08:27:25.195Z,55.83
2024-03-12T08:28:25.285Z,52.86
2024-03-12T08:29:25.301Z,50.00
2024-03-12T08:30:25.396Z,51.72
2024-03-12T08:31:32.761Z,54.30
2024-03-12T08:32:26.782Z,54.38
2024-03-12T08:33:25.569Z,54.79
2024-03-12T08:34:25.594Z,55.75
2024-03-12T08:35:25.513Z,58.11
2024-03-12T08:36:25.472Z,60.36
2024-03-12T08:37:25.475Z,58.03
2024-03-12T08:38:25.510Z,64.81
2024-03-12T08:39:25.512Z,71.45
2024-03-12T08:40:25.570Z,81.90
2024-03-12T08:41:25.491Z,84.94
2024-03-12T08:42:25.471Z,93.46
2024-03-12T08:43:26.114Z,103.22
2024-03-12T08:44:25.631Z,114.74
2024-03-12T08:45:25.589Z,120.66
2024-03-12T08:46:25.655Z,126.98
2024-03-12T08:47:25.852Z,140.50
2024-03-12T08:48:25.752Z,153.19
2024-03-12T08:49:26.157Z,155.44
2024-03-12T08:50:25.887Z,155.90
2024-03-12T08:51:25.964Z,159.55
2024-03-12T08:52:26.008Z,159.85
2024-03-12T08:53:25.982Z,167.13
2024-03-12T08:54:26.621Z,175.16
2024-03-12T08:55:26.092Z,180.39
2024-03-12T08:56:26.055Z,185.52
2024-03-12T08:57:26.120Z,192.80
2024-03-12T08:58:26.099Z,198.52
2024-03-12T08:59:26.150Z,199.58
2024-03-12T09:00:26.136Z,200.00
2024-03-12T09:01:26.269Z,199.28
2024-03-12T09:02:26.130Z,200.00
2024-03-12T09:03:26.218Z,198.96
2024-03-12T09:04:26.667Z,200.18
2024-03-12T09:05:26.325Z,199.09
2024-03-12T09:06:26.397Z,199.12
2024-03-12T09:07:26.447Z,199.49
2024-03-12T09:08:26.522Z,200.00
2024-03-12T09:09:26.649Z,199.44
2024-03-12T09:10:26.776Z,199.45
2024-03-12T09:11:26.806Z,199.57
2024-03-12T09:12:26.750Z,200.00
2024-03-12T09:13:26.799Z,199.21
2024-03-12T09:14:27.191Z,200.00
2024-03-12T09:15:26.878Z,199.82
2024-03-12T09:16:26.914Z,200.00
2024-03-12T09:17:28.019Z,200.11
2024-03-12T09:18:27.723Z,202.34
2024-03-12T09:19:27.143Z,205.66
2024-03-12T09:20:26.959Z,210.04
2024-03-12T09:21:26.907Z,216.88
2024-03-12T09:22:26.951Z,229.71
2024-03-12T09:23:26.961Z,278.44
2024-03-12T09:24:27.154Z,258.76
2024-03-12T09:25:26.962Z,229.68
2024-03-12T09:26:26.959Z,210.84
2024-03-12T09:27:26.931Z,199.28
2024-03-12T09:28:26.949Z,193.29
2024-03-12T09:29:26.957Z,191.50
2024-03-12T09:30:26.950Z,189.51
2024-03-12T09:31:26.986Z,189.09
2024-03-12T09:32:26.937Z,190.27
2024-03-12T09:33:26.973Z,188.41
2024-03-12T09:34:27.184Z,188.04
2024-03-12T09:35:26.979Z,189.33
2024-03-12T09:36:26.955Z,188.82
2024-03-12T09:37:26.989Z,189.84
2024-03-12T09:38:26.987Z,192.22
2024-03-12T09:39:27.149Z,203.92
2024-03-12T09:40:27.037Z,247.89
2024-03-12T09:41:27.069Z,248.51
2024-03-12T09:42:26.993Z,226.49
2024-03-12T09:43:26.986Z,205.43
2024-03-12T09:44:27.145Z,195.01
2024-03-12T09:45:26.965Z,188.43
2024-03-12T09:46:26.975Z,183.05
2024-03-12T09:47:27.038Z,180.11
2024-03-12T09:48:26.983Z,177.93
2024-03-12T09:49:27.196Z,176.41
2024-03-12T09:50:26.988Z,174.26
2024-03-12T09:51:26.994Z,173.12
2024-03-12T09:52:27.045Z,170.29
2024-03-12T09:53:27.006Z,169.00
2024-03-12T09:54:27.091Z,165.32
2024-03-12T09:55:27.104Z,163.49
2024-03-12T09:56:27.163Z,160.88
2024-03-12T09:57:27.204Z,159.40
2024-03-12T09:58:28.221Z,157.30
2024-03-12T09:59:27.668Z,156.04
2024-03-12T10:00:27.244Z,153.53
2024-03-12T10:01:27.224Z,152.57
2024-03-12T10:02:27.223Z,148.61
2024-03-12T10:03:27.197Z,146.46
2024-03-12T10:04:27.681Z,143.24
2024-03-12T10:05:27.212Z,139.44
2024-03-12T10:06:27.229Z,135.48
2024-03-12T10:07:27.215Z,132.20
2024-03-12T10:08:27.214Z,126.56
2024-03-12T10:09:27.762Z,122.73
2024-03-12T10:10:27.240Z,118.63
2024-03-12T10:11:27.276Z,117.25
2024-03-12T10:12:27.235Z,116.62
2024-03-12T10:13:27.257Z,115.34
2024-03-12T10:14:27.266Z,113.65
2024-03-12T10:15:27.231Z,113.22
2024-03-12T10:16:27.210Z,112.29
2024-03-12T10:17:27.309Z,112.41
2024-03-12T10:18:27.221Z,112.21
2024-03-12T10:19:27.253Z,111.41
2024-03-12T10:20:27.260Z,111.24
2024-03-12T10:21:27.320Z,111.51
2024-03-12T10:22:27.299Z,111.84
2024-03-12T10:23:27.422Z,112.00
2024-03-12T10:24:27.373Z,111.66
2024-03-12T10:25:27.431Z,111.96
2024-03-12T10:26:27.463Z,111.64
2024-03-12T10:27:27.492Z,111.49
2024-03-12T10:28:27.610Z,111.43
2024-03-12T10:29:27.714Z,111.57
2024-03-12T10:30:27.595Z,111.46
2024-03-12T10:31:27.640Z,110.50
2024-03-12T10:32:27.667Z,111.11
2024-03-12T10:33:27.752Z,109.80
2024-03-12T10:34:28.198Z,108.84
2024-03-12T10:35:27.827Z,109.61
2024-03-12T10:36:27.859Z,109.63
2024-03-12T10:37:27.879Z,109.21
2024-03-12T10:38:27.969Z,108.32
2024-03-12T10:39:28.204Z,108.04
2024-03-12T10:40:28.132Z,108.00
2024-03-12T10:41:28.243Z,108.82
2024-03-12T10:42:28.225Z,108.05
2024-03-12T10:43:28.314Z,108.55
2024-03-12T10:44:28.405Z,108.78
2024-03-12T10:45:28.461Z,108.94
2024-03-12T10:46:28.496Z,109.54
2024-03-12T10:47:28.522Z,108.56
2024-03-12T10:48:28.575Z,109.38
2024-03-12T10:49:28.692Z,109.58
2024-03-12T10:50:28.713Z,110.04
2024-03-12T10:51:28.764Z,109.04
2024-03-12T10:52:28.841Z,114.05
2024-03-12T10:53:31.982Z,119.43
2024-03-12T10:54:30.679Z,119.82
2024-03-12T10:55:28.911Z,119.96
2024-03-12T10:56:28.888Z,120.88
2024-03-12T10:57:28.915Z,122.62
2024-03-12T10:58:28.935Z,124.79
2024-03-12T10:59:28.920Z,127.56
2024-03-12T11:00:28.897Z,127.12
2024-03-12T11:01:28.982Z,123.94
2024-03-12T11:02:28.931Z,123.24
2024-03-12T11:03:28.909Z,121.40
2024-03-12T11:04:29.210Z,119.57
2024-03-12T11:05:28.965Z,117.95
2024-03-12T11:06:28.926Z,116.06
2024-03-12T11:07:28.910Z,114.38
2024-03-12T11:08:28.954Z,113.25
2024-03-12T11:09:29.277Z,111.69
2024-03-12T11:10:29.159Z,110.24
2024-03-12T11:11:28.932Z,108.04
2024-03-12T11:12:28.952Z,106.45
2024-03-12T11:13:28.939Z,105.36
2024-03-12T11:14:29.231Z,103.55
2024-03-12T11:15:28.929Z,101.47
2024-03-12T11:16:29.702Z,99.51
2024-03-12T11:17:29.113Z,98.20
2024-03-12T11:18:28.911Z,96.82
2024-03-12T11:19:28.991Z,95.09
2024-03-12T11:20:29.148Z,94.02
2024-03-12T11:21:28.929Z,92.46
2024-03-12T11:22:28.922Z,91.31
2024-03-12T11:23:28.974Z,89.57
2024-03-12T11:24:29.204Z,88.54
2024-03-12T11:25:28.934Z,87.64
2024-03-12T11:27:28.938Z,86.97
2024-03-12T11:28:28.928Z,86.85
2024-03-12T11:29:28.976Z,85.94
2024-03-12T11:30:28.953Z,85.61
2024-03-12T11:31:28.936Z,84.55
2024-03-12T11:32:28.987Z,83.73
2024-03-12T11:33:28.945Z,83.17
2024-03-12T11:34:29.212Z,82.56
2024-03-12T11:35:28.942Z,81.63
2024-03-12T11:36:28.994Z,82.21
2024-03-12T11:37:28.961Z,81.57
2024-03-12T11:38:28.970Z,80.97
2024-03-12T11:39:29.004Z,80.54
2024-03-12T11:40:29.032Z,80.14
2024-03-12T11:41:28.960Z,79.65
2024-03-12T11:42:28.971Z,78.91
2024-03-12T11:43:28.978Z,79.17
2024-03-12T11:44:28.981Z,78.48
2024-03-12T11:45:28.979Z,78.56
2024-03-12T11:46:28.993Z,79.15
2024-03-12T11:47:28.966Z,78.72
2024-03-12T11:48:28.964Z,78.56
2024-03-12T11:49:28.984Z,77.68
2024-03-12T11:50:29.214Z,77.34
2024-03-12T11:51:28.995Z,78.01
2024-03-12T11:52:29.010Z,78.00
2024-03-12T11:53:28.980Z,77.67
2024-03-12T11:54:28.966Z,79.00
2024-03-12T11:55:29.199Z,77.28
2024-03-12T11:56:28.986Z,78.08
2024-03-12T11:57:28.986Z,77.62
2024-03-12T11:58:29.007Z,77.98
2024-03-12T11:59:28.988Z,78.52
2024-03-12T12:00:29.225Z,78.61
2024-03-12T12:01:29.047Z,79.24
2024-03-12T12:02:29.012Z,78.69
2024-03-12T12:03:28.990Z,78.70
2024-03-12T12:04:29.008Z,79.90
2024-03-12T12:05:29.036Z,79.53
2024-03-12T12:06:28.989Z,79.63
2024-03-12T12:07:29.252Z,80.24
2024-03-12T12:08:29.018Z,80.09
2024-03-12T12:09:29.027Z,80.23
2024-03-12T12:10:29.254Z,80.58
2024-03-12T12:11:29.065Z,80.11
2024-03-12T12:12:28.985Z,80.00
2024-03-12T12:13:29.022Z,80.59
2024-03-12T12:14:29.069Z,80.23
2024-03-12T12:15:29.013Z,79.59
2024-03-12T12:16:29.011Z,79.60
2024-03-12T12:17:29.016Z,79.21
2024-03-12T12:18:29.024Z,79.69
2024-03-12T12:20:29.041Z,78.71
2024-03-12T12:21:29.054Z,78.83
2024-03-12T12:22:29.074Z,79.09
2024-03-12T12:23:29.048Z,78.12
2024-03-12T12:24:29.008Z,77.98
2024-03-12T12:25:29.203Z,77.35
2024-03-12T12:26:29.031Z,76.44
2024-03-12T12:27:29.032Z,76.72
2024-03-12T12:28:29.043Z,76.35
2024-03-12T12:29:29.055Z,76.12
2024-03-12T12:30:29.742Z,75.85
2024-03-12T12:31:29.023Z,75.85
2024-03-12T12:32:29.130Z,75.57
2024-03-12T12:33:29.033Z,75.47
2024-03-12T12:34:29.048Z,75.89
2024-03-12T12:35:29.163Z,74.61
2024-03-12T12:36:29.025Z,76.19
2024-03-12T12:37:29.065Z,75.24
2024-03-12T12:38:29.048Z,76.61
2024-03-12T12:39:36.543Z,76.15
2024-03-12T12:40:30.111Z,76.20
2024-03-12T12:41:29.042Z,76.26
2024-03-12T12:42:29.039Z,76.63
2024-03-12T12:43:29.050Z,76.81
2024-03-12T12:44:29.058Z,76.99
2024-03-12T12:45:29.061Z,76.50
2024-03-12T12:46:29.145Z,76.31
2024-03-12T12:47:29.152Z,75.94
2024-03-12T12:48:29.085Z,75.74
2024-03-12T12:49:29.079Z,75.03